sensor_id;sensor_type;location;lat;lon;timestamp;temperature;humidity
39983;DHT22;25670;44.782;10.356;2024-01-06T00:00:25;5.50;99.90
39983;DHT22;25670;44.782;10.356;2024-01-06T00:02:51;5.50;99.90
39983;DHT22;25670;44.782;10.356;2024-01-06T00:05:17;5.90;99.90
39983;DHT22;25670;44.782;10.356;2024-01-06T00:07:43;5.50;99.90
39983;DHT22;25670;44.782;10.356;2024-01-06T00:10:10;5.50;99.90
39983;DHT22;25670;44.782;10.356;2024-01-06T00:12:36;5.50;99.90
39983;DHT22;25670;44.782;10.356;2024-01-06T00:15:03;5.50;99.90
39983;DHT22;25670;44.782;10.356;2024-01-06T00:17:30;5.50;99.90
39983;DHT22;25670;44.782;10.356;2024-01-06T00:19:56;5.50;99.90
39983;DHT22;25670;44.782;10.356;2024-01-06T00:22:23;5.50;99.90
39983;DHT22;25670;44.782;10.356;2024-01-06T00:24:49;5.50;99.90
39983;DHT22;25670;44.782;10.356;2024-01-06T00:27:16;5.50;99.90
39983;DHT22;25670;44.782;10.356;2024-01-06T00:29:42;5.50;99.90
39983;DHT22;25670;44.782;10.356;2024-01-06T00:32:09;5.50;99.90
39983;DHT22;25670;44.782;10.356;2024-01-06T00:34:35;5.50;99.90
39983;DHT22;25670;44.782;10.356;2024-01-06T00:37:01;5.50;99.90
39983;DHT22;25670;44.782;10.356;2024-01-06T00:39:28;5.50;99.90
39983;DHT22;25670;44.782;10.356;2024-01-06T00:41:54;5.50;99.90
39983;DHT22;25670;44.782;10.356;2024-01-06T00:44:21;5.50;99.90
39983;DHT22;25670;44.782;10.356;2024-01-06T00:46:48;5.50;99.90
39983;DHT22;25670;44.782;10.356;2024-01-06T00:49:14;5.60;99.90
39983;DHT22;25670;44.782;10.356;2024-01-06T00:51:40;5.60;99.90
39983;DHT22;25670;44.782;10.356;2024-01-06T00:54:07;6.10;99.90
39983;DHT22;25670;44.782;10.356;2024-01-06T00:56:33;5.60;99.90
39983;DHT22;25670;44.782;10.356;2024-01-06T00:58:59;5.60;99.90
39983;DHT22;25670;44.782;10.356;2024-01-06T01:01:26;5.60;99.90
39983;DHT22;25670;44.782;10.356;2024-01-06T01:03:52;5.60;99.90
39983;DHT22;25670;44.782;10.356;2024-01-06T01:06:18;6.00;99.90
39983;DHT22;25670;44.782;10.356;2024-01-06T01:08:45;5.60;99.90
39983;DHT22;25670;44.782;10.356;2024-01-06T01:11:11;5.60;99.90
39983;DHT22;25670;44.782;10.356;2024-01-06T01:13:38;5.70;99.90
39983;DHT22;25670;44.782;10.356;2024-01-06T01:16:04;5.60;99.90
39983;DHT22;25670;44.782;10.356;2024-01-06T01:18:31;5.70;99.90
39983;DHT22;25670;44.782;10.356;2024-01-06T01:20:57;6.20;99.90
39983;DHT22;25670;44.782;10.356;2024-01-06T01:23:23;5.90;99.90
39983;DHT22;25670;44.782;10.356;2024-01-06T01:25:50;5.60;99.90
39983;DHT22;25670;44.782;10.356;2024-01-06T01:28:16;5.70;99.90
39983;DHT22;25670;44.782;10.356;2024-01-06T01:30:42;5.70;99.90
39983;DHT22;25670;44.782;10.356;2024-01-06T01:33:09;5.70;99.90
39983;DHT22;25670;44.782;10.356;2024-01-06T01:35:35;5.70;99.90
39983;DHT22;25670;44.782;10.356;2024-01-06T01:38:01;5.70;99.90
39983;DHT22;25670;44.782;10.356;2024-01-06T01:40:28;5.70;99.90
39983;DHT22;25670;44.782;10.356;2024-01-06T01:42:55;5.70;99.90
39983;DHT22;25670;44.782;10.356;2024-01-06T01:45:21;5.50;99.90
39983;DHT22;25670;44.782;10.356;2024-01-06T01:47:47;5.70;99.90
39983;DHT22;25670;44.782;10.356;2024-01-06T01:50:14;5.70;99.90
39983;DHT22;25670;44.782;10.356;2024-01-06T01:52:41;5.70;99.90
39983;DHT22;25670;44.782;10.356;2024-01-06T01:55:08;5.70;99.90
39983;DHT22;25670;44.782;10.356;2024-01-06T01:57:34;5.70;99.90
39983;DHT22;25670;44.782;10.356;2024-01-06T02:00:01;5.70;99.90
39983;DHT22;25670;44.782;10.356;2024-01-06T02:02:27;5.70;99.90
39983;DHT22;25670;44.782;10.356;2024-01-06T02:04:55;5.70;99.90
39983;DHT22;25670;44.782;10.356;2024-01-06T02:07:22;5.70;99.90
39983;DHT22;25670;44.782;10.356;2024-01-06T02:09:48;5.70;99.90
39983;DHT22;25670;44.782;10.356;2024-01-06T02:12:14;5.70;99.90
39983;DHT22;25670;44.782;10.356;2024-01-06T02:14:40;7.80;99.90
39983;DHT22;25670;44.782;10.356;2024-01-06T02:17:08;5.70;99.90
39983;DHT22;25670;44.782;10.356;2024-01-06T02:19:35;5.70;99.90
39983;DHT22;25670;44.782;10.356;2024-01-06T02:22:01;5.90;99.90
39983;DHT22;25670;44.782;10.356;2024-01-06T02:24:27;5.80;99.90
39983;DHT22;25670;44.782;10.356;2024-01-06T02:26:53;5.80;99.90
39983;DHT22;25670;44.782;10.356;2024-01-06T02:29:20;5.80;99.90
39983;DHT22;25670;44.782;10.356;2024-01-06T02:31:46;5.80;99.90
39983;DHT22;25670;44.782;10.356;2024-01-06T02:34:12;5.80;99.90
39983;DHT22;25670;44.782;10.356;2024-01-06T02:36:38;5.80;99.90
39983;DHT22;25670;44.782;10.356;2024-01-06T02:39:05;5.90;99.90
39983;DHT22;25670;44.782;10.356;2024-01-06T02:41:31;5.80;99.90
39983;DHT22;25670;44.782;10.356;2024-01-06T02:43:57;5.80;99.90
39983;DHT22;25670;44.782;10.356;2024-01-06T02:46:23;5.90;99.90
39983;DHT22;25670;44.782;10.356;2024-01-06T02:48:49;5.80;99.90
39983;DHT22;25670;44.782;10.356;2024-01-06T02:51:16;5.80;99.90
39983;DHT22;25670;44.782;10.356;2024-01-06T02:53:42;5.70;99.90
39983;DHT22;25670;44.782;10.356;2024-01-06T02:56:12;5.90;99.90
39983;DHT22;25670;44.782;10.356;2024-01-06T02:58:39;5.80;99.90
39983;DHT22;25670;44.782;10.356;2024-01-06T03:01:05;5.80;99.90
39983;DHT22;25670;44.782;10.356;2024-01-06T03:03:31;5.80;99.90
39983;DHT22;25670;44.782;10.356;2024-01-06T03:06:00;5.80;99.90
39983;DHT22;25670;44.782;10.356;2024-01-06T03:08:26;5.80;99.90
39983;DHT22;25670;44.782;10.356;2024-01-06T03:10:52;5.70;99.90
39983;DHT22;25670;44.782;10.356;2024-01-06T03:13:19;5.70;99.90
39983;DHT22;25670;44.782;10.356;2024-01-06T03:15:45;5.70;99.90
39983;DHT22;25670;44.782;10.356;2024-01-06T03:18:11;5.70;99.90
39983;DHT22;25670;44.782;10.356;2024-01-06T03:20:37;5.70;99.90
39983;DHT22;25670;44.782;10.356;2024-01-06T03:23:04;5.70;99.90
39983;DHT22;25670;44.782;10.356;2024-01-06T03:25:30;5.70;99.90
39983;DHT22;25670;44.782;10.356;2024-01-06T03:27:56;5.60;99.90
39983;DHT22;25670;44.782;10.356;2024-01-06T03:30:22;5.60;99.90
39983;DHT22;25670;44.782;10.356;2024-01-06T03:32:48;5.70;99.90
39983;DHT22;25670;44.782;10.356;2024-01-06T03:35:15;5.70;99.90
39983;DHT22;25670;44.782;10.356;2024-01-06T03:37:41;5.60;99.90
39983;DHT22;25670;44.782;10.356;2024-01-06T03:40:08;5.70;99.90
39983;DHT22;25670;44.782;10.356;2024-01-06T03:42:34;5.70;99.90
39983;DHT22;25670;44.782;10.356;2024-01-06T03:45:03;5.70;99.90
39983;DHT22;25670;44.782;10.356;2024-01-06T03:47:29;5.70;99.90
39983;DHT22;25670;44.782;10.356;2024-01-06T03:49:55;5.70;99.90
39983;DHT22;25670;44.782;10.356;2024-01-06T03:52:21;5.70;99.90
39983;DHT22;25670;44.782;10.356;2024-01-06T03:54:48;5.70;99.90
39983;DHT22;25670;44.782;10.356;2024-01-06T03:57:14;5.70;99.90
39983;DHT22;25670;44.782;10.356;2024-01-06T03:59:40;5.70;99.90
39983;DHT22;25670;44.782;10.356;2024-01-06T04:02:06;5.70;99.90
39983;DHT22;25670;44.782;10.356;2024-01-06T04:04:33;5.70;99.90
39983;DHT22;25670;44.782;10.356;2024-01-06T04:06:59;6.10;99.90
39983;DHT22;25670;44.782;10.356;2024-01-06T04:09:27;5.70;99.90
39983;DHT22;25670;44.782;10.356;2024-01-06T04:11:53;5.60;99.90
39983;DHT22;25670;44.782;10.356;2024-01-06T04:14:19;5.70;99.90
39983;DHT22;25670;44.782;10.356;2024-01-06T04:16:46;5.70;99.90
39983;DHT22;25670;44.782;10.356;2024-01-06T04:19:12;5.70;99.90
39983;DHT22;25670;44.782;10.356;2024-01-06T04:21:38;5.70;99.90
39983;DHT22;25670;44.782;10.356;2024-01-06T04:24:05;5.70;99.90
39983;DHT22;25670;44.782;10.356;2024-01-06T04:26:31;5.70;99.90
39983;DHT22;25670;44.782;10.356;2024-01-06T04:28:57;5.70;99.90
39983;DHT22;25670;44.782;10.356;2024-01-06T04:31:23;5.70;99.90
39983;DHT22;25670;44.782;10.356;2024-01-06T04:33:50;5.70;99.90
39983;DHT22;25670;44.782;10.356;2024-01-06T04:36:16;5.60;99.90
39983;DHT22;25670;44.782;10.356;2024-01-06T04:38:42;5.70;99.90
39983;DHT22;25670;44.782;10.356;2024-01-06T04:41:08;5.60;99.90
39983;DHT22;25670;44.782;10.356;2024-01-06T04:43:34;5.60;99.90
39983;DHT22;25670;44.782;10.356;2024-01-06T04:46:01;5.60;99.90
39983;DHT22;25670;44.782;10.356;2024-01-06T04:48:27;5.60;99.90
39983;DHT22;25670;44.782;10.356;2024-01-06T04:50:53;5.60;99.90
39983;DHT22;25670;44.782;10.356;2024-01-06T04:53:19;5.70;99.90
39983;DHT22;25670;44.782;10.356;2024-01-06T04:55:46;5.80;99.90
39983;DHT22;25670;44.782;10.356;2024-01-06T04:58:12;5.60;99.90
39983;DHT22;25670;44.782;10.356;2024-01-06T05:00:38;5.50;99.90
39983;DHT22;25670;44.782;10.356;2024-01-06T05:03:04;5.70;99.90
39983;DHT22;25670;44.782;10.356;2024-01-06T05:05:30;5.60;99.90
39983;DHT22;25670;44.782;10.356;2024-01-06T05:07:57;5.60;99.90
39983;DHT22;25670;44.782;10.356;2024-01-06T05:10:24;5.60;99.90
39983;DHT22;25670;44.782;10.356;2024-01-06T05:12:50;5.60;99.90
39983;DHT22;25670;44.782;10.356;2024-01-06T05:15:16;5.60;99.90
39983;DHT22;25670;44.782;10.356;2024-01-06T05:17:42;5.60;99.90
39983;DHT22;25670;44.782;10.356;2024-01-06T05:20:09;5.60;99.90
39983;DHT22;25670;44.782;10.356;2024-01-06T05:22:35;5.60;99.90
39983;DHT22;25670;44.782;10.356;2024-01-06T05:25:01;5.70;99.90
39983;DHT22;25670;44.782;10.356;2024-01-06T05:27:28;4.50;99.90
39983;DHT22;25670;44.782;10.356;2024-01-06T05:29:54;5.60;99.90
39983;DHT22;25670;44.782;10.356;2024-01-06T05:32:21;5.70;99.90
39983;DHT22;25670;44.782;10.356;2024-01-06T05:34:48;5.70;99.90
39983;DHT22;25670;44.782;10.356;2024-01-06T05:37:14;5.70;99.90
39983;DHT22;25670;44.782;10.356;2024-01-06T05:39:40;5.70;99.90
39983;DHT22;25670;44.782;10.356;2024-01-06T05:42:09;5.70;99.90
39983;DHT22;25670;44.782;10.356;2024-01-06T05:44:37;5.70;99.90
39983;DHT22;25670;44.782;10.356;2024-01-06T05:47:03;5.80;99.90
39983;DHT22;25670;44.782;10.356;2024-01-06T05:49:30;5.80;99.90
39983;DHT22;25670;44.782;10.356;2024-01-06T05:51:56;5.70;99.90
39983;DHT22;25670;44.782;10.356;2024-01-06T05:54:22;5.80;99.90
39983;DHT22;25670;44.782;10.356;2024-01-06T05:56:48;5.80;99.90
39983;DHT22;25670;44.782;10.356;2024-01-06T05:59:14;5.80;99.90
39983;DHT22;25670;44.782;10.356;2024-01-06T06:01:41;5.80;99.90
39983;DHT22;25670;44.782;10.356;2024-01-06T06:04:07;5.80;99.90
39983;DHT22;25670;44.782;10.356;2024-01-06T06:06:34;5.80;99.90
39983;DHT22;25670;44.782;10.356;2024-01-06T06:09:00;5.90;99.90
39983;DHT22;25670;44.782;10.356;2024-01-06T06:11:26;5.80;99.90
39983;DHT22;25670;44.782;10.356;2024-01-06T06:13:53;5.80;99.90
39983;DHT22;25670;44.782;10.356;2024-01-06T06:16:19;5.80;99.90
39983;DHT22;25670;44.782;10.356;2024-01-06T06:18:45;5.80;99.90
39983;DHT22;25670;44.782;10.356;2024-01-06T06:21:12;5.90;99.90
39983;DHT22;25670;44.782;10.356;2024-01-06T06:23:38;5.90;99.90
39983;DHT22;25670;44.782;10.356;2024-01-06T06:26:05;5.80;99.90
39983;DHT22;25670;44.782;10.356;2024-01-06T06:28:32;5.90;99.90
39983;DHT22;25670;44.782;10.356;2024-01-06T06:30:58;5.80;99.90
39983;DHT22;25670;44.782;10.356;2024-01-06T06:33:24;5.90;99.90
39983;DHT22;25670;44.782;10.356;2024-01-06T06:35:51;5.90;99.90
39983;DHT22;25670;44.782;10.356;2024-01-06T06:38:17;5.90;99.90
39983;DHT22;25670;44.782;10.356;2024-01-06T06:40:44;5.80;99.90
39983;DHT22;25670;44.782;10.356;2024-01-06T06:43:10;5.90;99.90
39983;DHT22;25670;44.782;10.356;2024-01-06T06:45:36;5.90;99.90
39983;DHT22;25670;44.782;10.356;2024-01-06T06:48:03;5.90;99.90
39983;DHT22;25670;44.782;10.356;2024-01-06T06:50:29;5.90;99.90
39983;DHT22;25670;44.782;10.356;2024-01-06T06:52:55;5.90;99.90
39983;DHT22;25670;44.782;10.356;2024-01-06T06:55:21;5.90;99.90
39983;DHT22;25670;44.782;10.356;2024-01-06T06:57:47;5.90;99.90
39983;DHT22;25670;44.782;10.356;2024-01-06T07:00:14;6.00;99.90
39983;DHT22;25670;44.782;10.356;2024-01-06T07:02:41;6.00;99.90
39983;DHT22;25670;44.782;10.356;2024-01-06T07:05:07;6.00;99.90
39983;DHT22;25670;44.782;10.356;2024-01-06T07:07:34;6.00;99.90
39983;DHT22;25670;44.782;10.356;2024-01-06T07:10:01;6.00;99.90
39983;DHT22;25670;44.782;10.356;2024-01-06T07:12:28;6.00;99.90
39983;DHT22;25670;44.782;10.356;2024-01-06T07:14:55;6.00;99.90
39983;DHT22;25670;44.782;10.356;2024-01-06T07:17:21;6.00;99.90
39983;DHT22;25670;44.782;10.356;2024-01-06T07:19:47;6.00;99.90
39983;DHT22;25670;44.782;10.356;2024-01-06T07:22:14;6.00;99.90
39983;DHT22;25670;44.782;10.356;2024-01-06T07:24:42;6.00;99.90
39983;DHT22;25670;44.782;10.356;2024-01-06T07:27:08;6.00;99.90
39983;DHT22;25670;44.782;10.356;2024-01-06T07:29:35;6.10;99.90
39983;DHT22;25670;44.782;10.356;2024-01-06T07:32:01;6.10;99.90
39983;DHT22;25670;44.782;10.356;2024-01-06T07:34:27;6.00;99.90
39983;DHT22;25670;44.782;10.356;2024-01-06T07:36:53;6.10;99.90
39983;DHT22;25670;44.782;10.356;2024-01-06T07:39:20;6.10;99.90
39983;DHT22;25670;44.782;10.356;2024-01-06T07:41:46;6.00;99.90
39983;DHT22;25670;44.782;10.356;2024-01-06T07:44:12;6.10;99.90
39983;DHT22;25670;44.782;10.356;2024-01-06T07:46:39;6.10;99.90
39983;DHT22;25670;44.782;10.356;2024-01-06T07:49:08;6.00;99.90
39983;DHT22;25670;44.782;10.356;2024-01-06T07:51:34;6.10;99.90
39983;DHT22;25670;44.782;10.356;2024-01-06T07:54:01;6.00;99.90
39983;DHT22;25670;44.782;10.356;2024-01-06T07:56:28;6.00;99.90
39983;DHT22;25670;44.782;10.356;2024-01-06T07:58:54;6.10;99.90
39983;DHT22;25670;44.782;10.356;2024-01-06T08:01:20;6.00;99.90
39983;DHT22;25670;44.782;10.356;2024-01-06T08:03:46;6.10;99.90
39983;DHT22;25670;44.782;10.356;2024-01-06T08:06:13;6.00;99.90
39983;DHT22;25670;44.782;10.356;2024-01-06T08:08:39;6.00;99.90
39983;DHT22;25670;44.782;10.356;2024-01-06T08:11:05;6.00;99.90
39983;DHT22;25670;44.782;10.356;2024-01-06T08:13:31;6.00;99.90
39983;DHT22;25670;44.782;10.356;2024-01-06T08:15:57;6.10;99.90
39983;DHT22;25670;44.782;10.356;2024-01-06T08:18:23;6.00;99.90
39983;DHT22;25670;44.782;10.356;2024-01-06T08:20:50;6.00;99.90
39983;DHT22;25670;44.782;10.356;2024-01-06T08:23:16;6.40;99.90
39983;DHT22;25670;44.782;10.356;2024-01-06T08:25:44;6.10;99.90
39983;DHT22;25670;44.782;10.356;2024-01-06T08:28:12;6.10;99.90
39983;DHT22;25670;44.782;10.356;2024-01-06T08:30:40;6.10;99.90
39983;DHT22;25670;44.782;10.356;2024-01-06T08:33:07;6.10;99.90
39983;DHT22;25670;44.782;10.356;2024-01-06T08:35:33;6.10;99.90
39983;DHT22;25670;44.782;10.356;2024-01-06T08:37:59;6.10;99.90
39983;DHT22;25670;44.782;10.356;2024-01-06T08:40:25;6.10;99.90
39983;DHT22;25670;44.782;10.356;2024-01-06T08:42:53;6.10;99.90
39983;DHT22;25670;44.782;10.356;2024-01-06T08:45:19;6.10;99.90
39983;DHT22;25670;44.782;10.356;2024-01-06T08:47:45;6.20;99.90
39983;DHT22;25670;44.782;10.356;2024-01-06T08:50:11;6.20;99.90
39983;DHT22;25670;44.782;10.356;2024-01-06T08:52:37;6.20;99.90
39983;DHT22;25670;44.782;10.356;2024-01-06T08:55:04;6.20;99.90
39983;DHT22;25670;44.782;10.356;2024-01-06T08:57:31;6.20;99.90
39983;DHT22;25670;44.782;10.356;2024-01-06T08:59:57;6.20;99.90
39983;DHT22;25670;44.782;10.356;2024-01-06T09:02:23;6.30;99.90
39983;DHT22;25670;44.782;10.356;2024-01-06T09:04:49;6.30;99.90
39983;DHT22;25670;44.782;10.356;2024-01-06T09:07:15;6.40;99.90
39983;DHT22;25670;44.782;10.356;2024-01-06T09:09:44;6.40;99.90
39983;DHT22;25670;44.782;10.356;2024-01-06T09:12:10;6.40;99.90
39983;DHT22;25670;44.782;10.356;2024-01-06T09:14:36;6.30;99.90
39983;DHT22;25670;44.782;10.356;2024-01-06T09:17:03;6.30;99.90
39983;DHT22;25670;44.782;10.356;2024-01-06T09:19:30;6.30;99.90
39983;DHT22;25670;44.782;10.356;2024-01-06T09:21:56;6.30;99.90
39983;DHT22;25670;44.782;10.356;2024-01-06T09:24:23;6.40;99.90
39983;DHT22;25670;44.782;10.356;2024-01-06T09:26:49;6.40;99.90
39983;DHT22;25670;44.782;10.356;2024-01-06T09:29:16;6.50;99.90
39983;DHT22;25670;44.782;10.356;2024-01-06T09:31:43;6.60;99.90
39983;DHT22;25670;44.782;10.356;2024-01-06T09:34:10;6.40;99.90
39983;DHT22;25670;44.782;10.356;2024-01-06T09:36:36;6.40;99.90
39983;DHT22;25670;44.782;10.356;2024-01-06T09:39:03;6.30;99.90
39983;DHT22;25670;44.782;10.356;2024-01-06T09:41:31;6.30;99.90
39983;DHT22;25670;44.782;10.356;2024-01-06T09:43:57;6.30;99.90
39983;DHT22;25670;44.782;10.356;2024-01-06T09:46:25;6.40;99.90
39983;DHT22;25670;44.782;10.356;2024-01-06T09:48:56;6.30;99.90
39983;DHT22;25670;44.782;10.356;2024-01-06T09:51:23;6.30;99.90
39983;DHT22;25670;44.782;10.356;2024-01-06T09:54:00;6.30;99.90
39983;DHT22;25670;44.782;10.356;2024-01-06T09:56:28;6.30;99.90
39983;DHT22;25670;44.782;10.356;2024-01-06T09:58:55;6.30;99.90
39983;DHT22;25670;44.782;10.356;2024-01-06T10:01:21;6.30;99.90
39983;DHT22;25670;44.782;10.356;2024-01-06T10:03:48;6.30;99.90
39983;DHT22;25670;44.782;10.356;2024-01-06T10:06:15;6.30;99.90
39983;DHT22;25670;44.782;10.356;2024-01-06T10:08:48;6.30;99.90
39983;DHT22;25670;44.782;10.356;2024-01-06T10:11:14;6.30;99.90
39983;DHT22;25670;44.782;10.356;2024-01-06T10:13:41;6.40;99.90
39983;DHT22;25670;44.782;10.356;2024-01-06T10:16:07;6.30;99.90
39983;DHT22;25670;44.782;10.356;2024-01-06T10:18:34;6.40;99.90
39983;DHT22;25670;44.782;10.356;2024-01-06T10:21:05;6.40;99.90
39983;DHT22;25670;44.782;10.356;2024-01-06T10:23:32;7.80;99.90
39983;DHT22;25670;44.782;10.356;2024-01-06T10:25:59;6.50;99.90
39983;DHT22;25670;44.782;10.356;2024-01-06T10:28:25;6.50;99.90
39983;DHT22;25670;44.782;10.356;2024-01-06T10:30:52;6.40;99.90
39983;DHT22;25670;44.782;10.356;2024-01-06T10:33:23;6.40;99.90
39983;DHT22;25670;44.782;10.356;2024-01-06T10:35:50;6.40;99.90
39983;DHT22;25670;44.782;10.356;2024-01-06T10:38:17;6.40;99.90
39983;DHT22;25670;44.782;10.356;2024-01-06T10:40:59;6.40;99.90
39983;DHT22;25670;44.782;10.356;2024-01-06T10:43:26;6.50;99.90
39983;DHT22;25670;44.782;10.356;2024-01-06T10:45:56;6.80;99.90
39983;DHT22;25670;44.782;10.356;2024-01-06T10:48:33;6.40;99.90
39983;DHT22;25670;44.782;10.356;2024-01-06T10:51:00;6.50;99.90
39983;DHT22;25670;44.782;10.356;2024-01-06T10:53:28;6.50;99.90
39983;DHT22;25670;44.782;10.356;2024-01-06T10:55:55;6.70;99.90
39983;DHT22;25670;44.782;10.356;2024-01-06T10:58:24;6.60;99.90
39983;DHT22;25670;44.782;10.356;2024-01-06T11:00:50;6.70;99.90
39983;DHT22;25670;44.782;10.356;2024-01-06T11:03:17;6.70;99.90
39983;DHT22;25670;44.782;10.356;2024-01-06T11:05:44;6.70;99.90
39983;DHT22;25670;44.782;10.356;2024-01-06T11:08:11;6.80;99.90
39983;DHT22;25670;44.782;10.356;2024-01-06T11:10:39;6.70;99.90
39983;DHT22;25670;44.782;10.356;2024-01-06T11:13:10;6.60;99.90
39983;DHT22;25670;44.782;10.356;2024-01-06T11:15:47;6.60;99.90
39983;DHT22;25670;44.782;10.356;2024-01-06T11:24:14;6.60;99.90
39983;DHT22;25670;44.782;10.356;2024-01-06T11:26:45;6.50;99.90
39983;DHT22;25670;44.782;10.356;2024-01-06T11:29:15;4.60;99.90
39983;DHT22;25670;44.782;10.356;2024-01-06T11:31:41;6.50;99.90
39983;DHT22;25670;44.782;10.356;2024-01-06T11:34:17;6.50;99.90
39983;DHT22;25670;44.782;10.356;2024-01-06T11:36:45;6.50;99.90
39983;DHT22;25670;44.782;10.356;2024-01-06T11:39:47;6.50;99.90
39983;DHT22;25670;44.782;10.356;2024-01-06T11:42:14;6.50;99.90
39983;DHT22;25670;44.782;10.356;2024-01-06T11:44:43;6.50;99.90
39983;DHT22;25670;44.782;10.356;2024-01-06T11:47:11;6.50;99.90
39983;DHT22;25670;44.782;10.356;2024-01-06T11:49:37;6.50;99.90
39983;DHT22;25670;44.782;10.356;2024-01-06T11:52:04;6.50;99.90
39983;DHT22;25670;44.782;10.356;2024-01-06T11:54:31;6.50;99.90
39983;DHT22;25670;44.782;10.356;2024-01-06T11:56:58;6.50;99.90
39983;DHT22;25670;44.782;10.356;2024-01-06T11:59:24;6.50;99.90
39983;DHT22;25670;44.782;10.356;2024-01-06T12:01:50;6.50;99.90
39983;DHT22;25670;44.782;10.356;2024-01-06T12:04:19;6.50;99.90
39983;DHT22;25670;44.782;10.356;2024-01-06T12:06:48;6.50;99.90
39983;DHT22;25670;44.782;10.356;2024-01-06T12:09:17;6.60;99.90
39983;DHT22;25670;44.782;10.356;2024-01-06T12:11:45;6.50;99.90
39983;DHT22;25670;44.782;10.356;2024-01-06T12:14:13;6.50;99.90
39983;DHT22;25670;44.782;10.356;2024-01-06T12:16:39;6.60;99.90
39983;DHT22;25670;44.782;10.356;2024-01-06T12:19:05;6.60;99.90
39983;DHT22;25670;44.782;10.356;2024-01-06T12:21:31;6.60;99.90
39983;DHT22;25670;44.782;10.356;2024-01-06T12:24:17;6.60;99.90
39983;DHT22;25670;44.782;10.356;2024-01-06T12:26:44;6.60;99.90
39983;DHT22;25670;44.782;10.356;2024-01-06T12:29:11;6.60;99.90
39983;DHT22;25670;44.782;10.356;2024-01-06T12:31:39;6.60;99.90
39983;DHT22;25670;44.782;10.356;2024-01-06T12:34:05;6.60;99.90
39983;DHT22;25670;44.782;10.356;2024-01-06T12:36:35;6.60;99.90
39983;DHT22;25670;44.782;10.356;2024-01-06T12:39:03;6.60;99.90
39983;DHT22;25670;44.782;10.356;2024-01-06T12:41:29;6.60;99.90
39983;DHT22;25670;44.782;10.356;2024-01-06T12:43:55;6.60;99.90
39983;DHT22;25670;44.782;10.356;2024-01-06T12:46:22;6.90;99.90
39983;DHT22;25670;44.782;10.356;2024-01-06T12:48:48;6.60;99.90
39983;DHT22;25670;44.782;10.356;2024-01-06T12:51:14;6.60;99.90
39983;DHT22;25670;44.782;10.356;2024-01-06T12:53:40;6.60;99.90
39983;DHT22;25670;44.782;10.356;2024-01-06T12:56:07;6.80;99.90
39983;DHT22;25670;44.782;10.356;2024-01-06T12:58:33;6.60;99.90
39983;DHT22;25670;44.782;10.356;2024-01-06T13:01:00;6.60;99.90
39983;DHT22;25670;44.782;10.356;2024-01-06T13:03:26;6.60;99.90
39983;DHT22;25670;44.782;10.356;2024-01-06T13:05:52;6.70;99.90
39983;DHT22;25670;44.782;10.356;2024-01-06T13:08:18;7.20;99.90
39983;DHT22;25670;44.782;10.356;2024-01-06T13:10:44;6.70;99.90
39983;DHT22;25670;44.782;10.356;2024-01-06T13:13:10;6.80;99.90
39983;DHT22;25670;44.782;10.356;2024-01-06T13:15:37;7.40;99.90
39983;DHT22;25670;44.782;10.356;2024-01-06T13:18:03;6.80;99.90
39983;DHT22;25670;44.782;10.356;2024-01-06T13:20:29;6.70;99.90
39983;DHT22;25670;44.782;10.356;2024-01-06T13:22:55;6.80;99.90
39983;DHT22;25670;44.782;10.356;2024-01-06T13:25:21;6.80;99.90
39983;DHT22;25670;44.782;10.356;2024-01-06T13:27:48;6.80;99.90
39983;DHT22;25670;44.782;10.356;2024-01-06T13:30:20;6.80;99.90
39983;DHT22;25670;44.782;10.356;2024-01-06T13:32:46;6.80;99.90
39983;DHT22;25670;44.782;10.356;2024-01-06T13:35:14;6.80;99.90
39983;DHT22;25670;44.782;10.356;2024-01-06T13:37:40;6.80;99.90
39983;DHT22;25670;44.782;10.356;2024-01-06T13:40:08;6.80;99.90
39983;DHT22;25670;44.782;10.356;2024-01-06T13:42:35;6.80;99.90
39983;DHT22;25670;44.782;10.356;2024-01-06T13:45:02;6.80;99.90
39983;DHT22;25670;44.782;10.356;2024-01-06T13:47:29;6.90;99.90
39983;DHT22;25670;44.782;10.356;2024-01-06T13:49:59;6.80;99.90
39983;DHT22;25670;44.782;10.356;2024-01-06T13:52:28;6.90;99.90
39983;DHT22;25670;44.782;10.356;2024-01-06T13:55:00;6.80;99.90
39983;DHT22;25670;44.782;10.356;2024-01-06T13:57:29;6.80;99.90
39983;DHT22;25670;44.782;10.356;2024-01-06T13:59:58;6.90;99.90
39983;DHT22;25670;44.782;10.356;2024-01-06T14:02:25;6.90;99.90
39983;DHT22;25670;44.782;10.356;2024-01-06T14:04:54;6.90;99.90
39983;DHT22;25670;44.782;10.356;2024-01-06T14:07:28;6.90;99.90
39983;DHT22;25670;44.782;10.356;2024-01-06T14:10:02;6.80;99.90
39983;DHT22;25670;44.782;10.356;2024-01-06T14:12:31;6.90;99.90
39983;DHT22;25670;44.782;10.356;2024-01-06T14:14:57;6.80;99.90
39983;DHT22;25670;44.782;10.356;2024-01-06T14:17:25;6.90;99.90
39983;DHT22;25670;44.782;10.356;2024-01-06T14:19:51;6.90;99.90
39983;DHT22;25670;44.782;10.356;2024-01-06T14:22:18;6.80;99.90
39983;DHT22;25670;44.782;10.356;2024-01-06T14:24:44;6.80;99.90
39983;DHT22;25670;44.782;10.356;2024-01-06T14:27:10;6.80;99.90
39983;DHT22;25670;44.782;10.356;2024-01-06T14:29:37;6.80;99.90
39983;DHT22;25670;44.782;10.356;2024-01-06T14:32:05;6.90;99.90
39983;DHT22;25670;44.782;10.356;2024-01-06T14:34:31;6.80;99.90
39983;DHT22;25670;44.782;10.356;2024-01-06T14:36:57;6.80;99.90
39983;DHT22;25670;44.782;10.356;2024-01-06T14:39:23;6.80;99.90
39983;DHT22;25670;44.782;10.356;2024-01-06T14:41:50;6.60;99.90
39983;DHT22;25670;44.782;10.356;2024-01-06T14:44:16;6.90;99.90
39983;DHT22;25670;44.782;10.356;2024-01-06T14:46:43;6.90;99.90
39983;DHT22;25670;44.782;10.356;2024-01-06T14:49:09;6.80;99.90
39983;DHT22;25670;44.782;10.356;2024-01-06T14:51:36;6.80;99.90
39983;DHT22;25670;44.782;10.356;2024-01-06T14:54:03;6.80;99.90
39983;DHT22;25670;44.782;10.356;2024-01-06T14:56:29;6.80;99.90
39983;DHT22;25670;44.782;10.356;2024-01-06T14:58:58;6.80;99.90
39983;DHT22;25670;44.782;10.356;2024-01-06T15:01:24;6.80;99.90
39983;DHT22;25670;44.782;10.356;2024-01-06T15:03:50;6.80;99.90
39983;DHT22;25670;44.782;10.356;2024-01-06T15:06:16;6.80;99.90
39983;DHT22;25670;44.782;10.356;2024-01-06T15:08:43;6.90;99.90
39983;DHT22;25670;44.782;10.356;2024-01-06T15:11:09;6.80;99.90
39983;DHT22;25670;44.782;10.356;2024-01-06T15:13:35;6.90;99.90
39983;DHT22;25670;44.782;10.356;2024-01-06T15:16:02;6.90;99.90
39983;DHT22;25670;44.782;10.356;2024-01-06T15:18:29;6.90;99.90
39983;DHT22;25670;44.782;10.356;2024-01-06T15:20:55;6.90;99.90
39983;DHT22;25670;44.782;10.356;2024-01-06T15:23:21;7.00;99.90
39983;DHT22;25670;44.782;10.356;2024-01-06T15:25:48;6.90;99.90
39983;DHT22;25670;44.782;10.356;2024-01-06T15:28:14;7.00;99.90
39983;DHT22;25670;44.782;10.356;2024-01-06T15:30:40;6.90;99.90
39983;DHT22;25670;44.782;10.356;2024-01-06T15:33:06;6.90;99.90